sensor_id;sensor_type;location;lat;lon;timestamp;pressure;altitude;pressure_sealevel;temperature;humidity
29549;BME280;16487;53.094;8.800;2023-07-08T00:02:09;100351.44;;;17.56;100.00
29549;BME280;16487;53.094;8.800;2023-07-08T00:04:36;100356.28;;;17.50;100.00
29549;BME280;16487;53.094;8.800;2023-07-08T00:07:05;100346.97;;;17.44;100.00
29549;BME280;16487;53.094;8.800;2023-07-08T00:09:32;100349.09;;;17.49;100.00
29549;BME280;16487;53.094;8.800;2023-07-08T00:12:07;100331.19;;;17.52;100.00
29549;BME280;16487;53.094;8.800;2023-07-08T00:14:35;100365.44;;;17.45;100.00
29549;BME280;16487;53.094;8.800;2023-07-08T00:17:04;100378.41;;;17.37;100.00
29549;BME280;16487;53.094;8.800;2023-07-08T00:19:31;100382.50;;;17.36;100.00
29549;BME280;16487;53.094;8.800;2023-07-08T00:21:58;100386.63;;;17.41;100.00
29549;BME280;16487;53.094;8.800;2023-07-08T00:24:26;100416.31;;;17.36;100.00
29549;BME280;16487;53.094;8.800;2023-07-08T00:26:53;100413.78;;;17.38;100.00
29549;BME280;16487;53.094;8.800;2023-07-08T00:29:21;100411.50;;;17.42;100.00
29549;BME280;16487;53.094;8.800;2023-07-08T00:31:48;100427.88;;;17.38;100.00
29549;BME280;16487;53.094;8.800;2023-07-08T00:34:16;100436.81;;;17.37;100.00
29549;BME280;16487;53.094;8.800;2023-07-08T00:36:44;100431.19;;;17.37;100.00
29549;BME280;16487;53.094;8.800;2023-07-08T00:39:13;100433.59;;;17.24;100.00
29549;BME280;16487;53.094;8.800;2023-07-08T00:41:42;100441.56;;;17.25;100.00
29549;BME280;16487;53.094;8.800;2023-07-08T00:44:11;100431.06;;;17.26;100.00
29549;BME280;16487;53.094;8.800;2023-07-08T00:46:50;100432.28;;;17.19;100.00
29549;BME280;16487;53.094;8.800;2023-07-08T00:49:30;100429.47;;;17.19;100.00
29549;BME280;16487;53.094;8.800;2023-07-08T00:52:21;100420.75;;;17.17;100.00
29549;BME280;16487;53.094;8.800;2023-07-08T00:54:50;100420.47;;;17.15;100.00
29549;BME280;16487;53.094;8.800;2023-07-08T00:57:17;100417.34;;;17.13;100.00
29549;BME280;16487;53.094;8.800;2023-07-08T00:59:49;100421.97;;;17.10;100.00
29549;BME280;16487;53.094;8.800;2023-07-08T01:02:20;100404.56;;;17.12;100.00
29549;BME280;16487;53.094;8.800;2023-07-08T01:04:51;100426.03;;;17.09;100.00
29549;BME280;16487;53.094;8.800;2023-07-08T01:07:20;100429.22;;;16.97;100.00
29549;BME280;16487;53.094;8.800;2023-07-08T01:09:51;100403.94;;;17.02;100.00
29549;BME280;16487;53.094;8.800;2023-07-08T01:12:22;100413.03;;;16.92;100.00
29549;BME280;16487;53.094;8.800;2023-07-08T01:14:52;100399.66;;;16.87;100.00
29549;BME280;16487;53.094;8.800;2023-07-08T01:17:23;100392.78;;;16.88;100.00
29549;BME280;16487;53.094;8.800;2023-07-08T01:19:50;100399.88;;;16.83;100.00
29549;BME280;16487;53.094;8.800;2023-07-08T01:22:19;100382.38;;;16.74;100.00
29549;BME280;16487;53.094;8.800;2023-07-08T01:24:46;100367.16;;;16.86;100.00
29549;BME280;16487;53.094;8.800;2023-07-08T01:27:15;100357.84;;;16.74;100.00
29549;BME280;16487;53.094;8.800;2023-07-08T01:29:44;100349.88;;;16.73;100.00
29549;BME280;16487;53.094;8.800;2023-07-08T01:32:13;100349.66;;;16.76;100.00
29549;BME280;16487;53.094;8.800;2023-07-08T01:34:41;100354.03;;;16.77;100.00
29549;BME280;16487;53.094;8.800;2023-07-08T01:37:10;100352.44;;;16.71;100.00
29549;BME280;16487;53.094;8.800;2023-07-08T01:39:39;100343.13;;;16.65;100.00
29549;BME280;16487;53.094;8.800;2023-07-08T01:42:06;100318.47;;;16.54;100.00
29549;BME280;16487;53.094;8.800;2023-07-08T01:44:35;100302.91;;;16.39;100.00
29549;BME280;16487;53.094;8.800;2023-07-08T01:47:10;100289.13;;;16.41;100.00
29549;BME280;16487;53.094;8.800;2023-07-08T01:49:40;100283.22;;;16.39;100.00
29549;BME280;16487;53.094;8.800;2023-07-08T01:52:09;100256.03;;;16.30;100.00
29549;BME280;16487;53.094;8.800;2023-07-08T01:54:39;100240.00;;;16.36;100.00
29549;BME280;16487;53.094;8.800;2023-07-08T01:57:06;100227.69;;;16.34;100.00
29549;BME280;16487;53.094;8.800;2023-07-08T01:59:33;100223.69;;;16.20;100.00
29549;BME280;16487;53.094;8.800;2023-07-08T02:02:00;100206.34;;;16.22;100.00
29549;BME280;16487;53.094;8.800;2023-07-08T02:04:28;100205.69;;;16.12;100.00
29549;BME280;16487;53.094;8.800;2023-07-08T02:06:56;100193.97;;;16.14;100.00
29549;BME280;16487;53.094;8.800;2023-07-08T02:09:24;100189.06;;;16.09;100.00
29549;BME280;16487;53.094;8.800;2023-07-08T02:11:53;100172.97;;;16.09;100.00
29549;BME280;16487;53.094;8.800;2023-07-08T02:14:20;100173.88;;;16.00;100.00
29549;BME280;16487;53.094;8.800;2023-07-08T02:16:48;100171.28;;;15.97;100.00
29549;BME280;16487;53.094;8.800;2023-07-08T02:19:15;100172.78;;;15.92;100.00
29549;BME280;16487;53.094;8.800;2023-07-08T02:21:42;100160.28;;;15.93;100.00
29549;BME280;16487;53.094;8.800;2023-07-08T02:24:09;100162.69;;;15.80;100.00
29549;BME280;16487;53.094;8.800;2023-07-08T02:26:36;100163.94;;;15.79;100.00
29549;BME280;16487;53.094;8.800;2023-07-08T02:29:05;100154.97;;;15.75;100.00
29549;BME280;16487;53.094;8.800;2023-07-08T02:31:32;100158.47;;;15.70;100.00
29549;BME280;16487;53.094;8.800;2023-07-08T02:33:59;100156.84;;;15.64;100.00
29549;BME280;16487;53.094;8.800;2023-07-08T02:36:26;100145.13;;;15.65;100.00
29549;BME280;16487;53.094;8.800;2023-07-08T02:38:54;100145.31;;;15.62;100.00
29549;BME280;16487;53.094;8.800;2023-07-08T02:41:21;100139.50;;;15.65;100.00
29549;BME280;16487;53.094;8.800;2023-07-08T02:43:48;100144.38;;;15.65;100.00
29549;BME280;16487;53.094;8.800;2023-07-08T02:46:17;100128.34;;;15.71;100.00
29549;BME280;16487;53.094;8.800;2023-07-08T02:48:45;100136.44;;;15.63;100.00
29549;BME280;16487;53.094;8.800;2023-07-08T02:51:12;100130.81;;;15.63;100.00
29549;BME280;16487;53.094;8.800;2023-07-08T02:53:39;100133.56;;;15.58;100.00
29549;BME280;16487;53.094;8.800;2023-07-08T02:56:06;100136.84;;;15.56;100.00
29549;BME280;16487;53.094;8.800;2023-07-08T02:58:33;100133.25;;;15.56;100.00
29549;BME280;16487;53.094;8.800;2023-07-08T03:01:01;100132.47;;;15.55;100.00
29549;BME280;16487;53.094;8.800;2023-07-08T03:03:30;100113.66;;;15.41;100.00
29549;BME280;16487;53.094;8.800;2023-07-08T03:05:59;100117.16;;;15.36;100.00
29549;BME280;16487;53.094;8.800;2023-07-08T03:08:27;100105.63;;;15.34;100.00
29549;BME280;16487;53.094;8.800;2023-07-08T03:10:56;100099.56;;;15.36;100.00
29549;BME280;16487;53.094;8.800;2023-07-08T03:13:25;100096.66;;;15.30;100.00
29549;BME280;16487;53.094;8.800;2023-07-08T03:15:53;100096.16;;;15.12;100.00
29549;BME280;16487;53.094;8.800;2023-07-08T03:18:21;100095.06;;;15.24;100.00
29549;BME280;16487;53.094;8.800;2023-07-08T03:20:49;100087.97;;;15.08;100.00
29549;BME280;16487;53.094;8.800;2023-07-08T03:23:17;100081.63;;;14.93;100.00
29549;BME280;16487;53.094;8.800;2023-07-08T03:25:44;100080.72;;;15.02;100.00
29549;BME280;16487;53.094;8.800;2023-07-08T03:28:11;100080.91;;;14.98;100.00
29549;BME280;16487;53.094;8.800;2023-07-08T03:30:39;100083.94;;;14.94;100.00
29549;BME280;16487;53.094;8.800;2023-07-08T03:33:07;100080.72;;;15.02;100.00
29549;BME280;16487;53.094;8.800;2023-07-08T03:35:35;100081.50;;;15.02;100.00
29549;BME280;16487;53.094;8.800;2023-07-08T03:38:04;100071.78;;;15.03;100.00
29549;BME280;16487;53.094;8.800;2023-07-08T03:40:31;100081.50;;;15.02;100.00
29549;BME280;16487;53.094;8.800;2023-07-08T03:42:59;100082.59;;;15.10;100.00
29549;BME280;16487;53.094;8.800;2023-07-08T03:45:29;100079.53;;;15.08;100.00
29549;BME280;16487;53.094;8.800;2023-07-08T03:47:56;100073.66;;;15.06;100.00
29549;BME280;16487;53.094;8.800;2023-07-08T03:50:26;100076.03;;;15.13;100.00
29549;BME280;16487;53.094;8.800;2023-07-08T03:52:54;100075.03;;;15.16;100.00
29549;BME280;16487;53.094;8.800;2023-07-08T03:55:27;100076.28;;;15.15;100.00
29549;BME280;16487;53.094;8.800;2023-07-08T03:57:55;100068.88;;;15.12;100.00
29549;BME280;16487;53.094;8.800;2023-07-08T04:00:22;100076.25;;;15.10;100.00
29549;BME280;16487;53.094;8.800;2023-07-08T04:02:49;100064.03;;;15.13;100.00
29549;BME280;16487;53.094;8.800;2023-07-08T04:05:22;100073.66;;;15.06;100.00
29549;BME280;16487;53.094;8.800;2023-07-08T04:07:50;100064.31;;;15.15;100.00
29549;BME280;16487;53.094;8.800;2023-07-08T04:10:17;100067.88;;;15.15;100.00
29549;BME280;16487;53.094;8.800;2023-07-08T04:12:46;100065.06;;;15.15;100.00
29549;BME280;16487;53.094;8.800;2023-07-08T04:15:13;100067.88;;;15.15;100.00
29549;BME280;16487;53.094;8.800;2023-07-08T04:17:43;100072.53;;;15.18;100.00
29549;BME280;16487;53.094;8.800;2023-07-08T04:20:11;100065.63;;;15.19;100.00
29549;BME280;16487;53.094;8.800;2023-07-08T04:22:40;100061.38;;;15.24;100.00
29549;BME280;16487;53.094;8.800;2023-07-08T04:25:07;100060.88;;;15.25;100.00
29549;BME280;16487;53.094;8.800;2023-07-08T04:27:34;100066.50;;;15.25;100.00
29549;BME280;16487;53.094;8.800;2023-07-08T04:30:04;100062.75;;;15.34;100.00
29549;BME280;16487;53.094;8.800;2023-07-08T04:32:31;100067.66;;;15.39;100.00
29549;BME280;16487;53.094;8.800;2023-07-08T04:34:58;100069.03;;;15.43;100.00
29549;BME280;16487;53.094;8.800;2023-07-08T04:37:26;100063.69;;;15.45;100.00
29549;BME280;16487;53.094;8.800;2023-07-08T04:39:53;100059.47;;;15.55;100.00
29549;BME280;16487;53.094;8.800;2023-07-08T04:42:20;100070.16;;;15.51;100.00
29549;BME280;16487;53.094;8.800;2023-07-08T04:44:47;100071.97;;;15.54;100.00
29549;BME280;16487;53.094;8.800;2023-07-08T04:47:15;100070.75;;;15.61;100.00
29549;BME280;16487;53.094;8.800;2023-07-08T04:49:43;100076.72;;;15.68;100.00
29549;BME280;16487;53.094;8.800;2023-07-08T04:52:10;100068.41;;;15.79;100.00
29549;BME280;16487;53.094;8.800;2023-07-08T04:54:37;100067.47;;;15.88;100.00
29549;BME280;16487;53.094;8.800;2023-07-08T04:57:04;100076.50;;;15.97;100.00
29549;BME280;16487;53.094;8.800;2023-07-08T04:59:31;100074.03;;;16.05;100.00
29549;BME280;16487;53.094;8.800;2023-07-08T05:01:58;100080.97;;;16.10;100.00
29549;BME280;16487;53.094;8.800;2023-07-08T05:04:27;100086.94;;;16.17;100.00
29549;BME280;16487;53.094;8.800;2023-07-08T05:06:54;100087.72;;;16.23;100.00
29549;BME280;16487;53.094;8.800;2023-07-08T05:09:21;100108.03;;;16.33;100.00
29549;BME280;16487;53.094;8.800;2023-07-08T05:11:48;100104.03;;;16.45;100.00
29549;BME280;16487;53.094;8.800;2023-07-08T05:14:15;100116.41;;;16.53;100.00
29549;BME280;16487;53.094;8.800;2023-07-08T05:16:43;100133.91;;;16.68;100.00
29549;BME280;16487;53.094;8.800;2023-07-08T05:19:10;100158.03;;;16.80;100.00
29549;BME280;16487;53.094;8.800;2023-07-08T05:21:38;100189.38;;;16.93;100.00
29549;BME280;16487;53.094;8.800;2023-07-08T05:24:06;100229.63;;;17.04;100.00
29549;BME280;16487;53.094;8.800;2023-07-08T05:26:33;100259.44;;;17.16;100.00
29549;BME280;16487;53.094;8.800;2023-07-08T05:29:00;100328.72;;;17.34;100.00
29549;BME280;16487;53.094;8.800;2023-07-08T05:31:28;100393.13;;;17.47;100.00
29549;BME280;16487;53.094;8.800;2023-07-08T05:34:14;100487.00;;;17.58;100.00
29549;BME280;16487;53.094;8.800;2023-07-08T05:36:43;100587.59;;;17.72;100.00
29549;BME280;16487;53.094;8.800;2023-07-08T05:39:10;100641.00;;;17.81;100.00
29549;BME280;16487;53.094;8.800;2023-07-08T05:41:37;100680.34;;;17.90;100.00
29549;BME280;16487;53.094;8.800;2023-07-08T05:44:04;100742.00;;;18.03;100.00
29549;BME280;16487;53.094;8.800;2023-07-08T05:46:31;100797.56;;;18.17;100.00
29549;BME280;16487;53.094;8.800;2023-07-08T05:48:59;100836.44;;;18.27;100.00
29549;BME280;16487;53.094;8.800;2023-07-08T05:51:28;100876.09;;;18.39;100.00
29549;BME280;16487;53.094;8.800;2023-07-08T05:53:56;100910.59;;;18.48;100.00
29549;BME280;16487;53.094;8.800;2023-07-08T05:56:24;100974.13;;;18.58;100.00
29549;BME280;16487;53.094;8.800;2023-07-08T05:58:51;101003.81;;;18.68;100.00
29549;BME280;16487;53.094;8.800;2023-07-08T06:01:18;101038.31;;;18.78;100.00
29549;BME280;16487;53.094;8.800;2023-07-08T06:03:45;101106.56;;;18.91;100.00
29549;BME280;16487;53.094;8.800;2023-07-08T06:06:13;101137.19;;;18.98;100.00
29549;BME280;16487;53.094;8.800;2023-07-08T06:08:40;101163.88;;;19.11;100.00
29549;BME280;16487;53.094;8.800;2023-07-08T06:11:09;101180.69;;;19.20;100.00
29549;BME280;16487;53.094;8.800;2023-07-08T06:13:36;101183.88;;;19.28;100.00
29549;BME280;16487;53.094;8.800;2023-07-08T06:16:03;101232.63;;;19.38;100.00
29549;BME280;16487;53.094;8.800;2023-07-08T06:18:30;101273.44;;;19.51;100.00
29549;BME280;16487;53.094;8.800;2023-07-08T06:20:58;101286.38;;;19.58;100.00
29549;BME280;16487;53.094;8.800;2023-07-08T06:23:26;101309.94;;;19.69;100.00
29549;BME280;16487;53.094;8.800;2023-07-08T06:25:54;101357.91;;;19.78;100.00
29549;BME280;16487;53.094;8.800;2023-07-08T06:28:23;101374.47;;;19.85;100.00
29549;BME280;16487;53.094;8.800;2023-07-08T06:31:06;101402.63;;;19.94;100.00
29549;BME280;16487;53.094;8.800;2023-07-08T06:33:34;101412.06;;;20.06;100.00
29549;BME280;16487;53.094;8.800;2023-07-08T06:36:09;101434.13;;;20.16;100.00
29549;BME280;16487;53.094;8.800;2023-07-08T06:38:37;101471.66;;;20.31;100.00
29549;BME280;16487;53.094;8.800;2023-07-08T06:41:04;101510.88;;;20.38;100.00
29549;BME280;16487;53.094;8.800;2023-07-08T06:43:45;101525.50;;;20.52;100.00
29549;BME280;16487;53.094;8.800;2023-07-08T06:46:23;101539.03;;;20.62;100.00
29549;BME280;16487;53.094;8.800;2023-07-08T06:48:51;101586.31;;;20.71;100.00
29549;BME280;16487;53.094;8.800;2023-07-08T06:51:18;101649.19;;;20.75;100.00
29549;BME280;16487;53.094;8.800;2023-07-08T06:53:45;101699.78;;;20.82;100.00
29549;BME280;16487;53.094;8.800;2023-07-08T06:56:13;101742.19;;;20.91;100.00
29549;BME280;16487;53.094;8.800;2023-07-08T06:58:41;101798.50;;;20.98;100.00
29549;BME280;16487;53.094;8.800;2023-07-08T07:01:09;101823.34;;;21.03;100.00
29549;BME280;16487;53.094;8.800;2023-07-08T07:03:37;101844.09;;;21.09;100.00
29549;BME280;16487;53.094;8.800;2023-07-08T07:06:04;101863.41;;;21.25;100.00
29549;BME280;16487;53.094;8.800;2023-07-08T07:08:31;101873.81;;;21.28;100.00
29549;BME280;16487;53.094;8.800;2023-07-08T07:10:59;101874.75;;;21.39;100.00
29549;BME280;16487;53.094;8.800;2023-07-08T07:13:26;101885.81;;;21.52;100.00
29549;BME280;16487;53.094;8.800;2023-07-08T07:15:55;101893.03;;;21.53;100.00
29549;BME280;16487;53.094;8.800;2023-07-08T07:18:22;101911.78;;;21.65;100.00
29549;BME280;16487;53.094;8.800;2023-07-08T07:20:52;101912.19;;;21.73;100.00
29549;BME280;16487;53.094;8.800;2023-07-08T07:23:20;101916.69;;;21.79;100.00
29549;BME280;16487;53.094;8.800;2023-07-08T07:25:47;101925.66;;;21.92;100.00
29549;BME280;16487;53.094;8.800;2023-07-08T07:28:14;101940.31;;;22.05;100.00
29549;BME280;16487;53.094;8.800;2023-07-08T07:30:42;101938.63;;;22.13;100.00
29549;BME280;16487;53.094;8.800;2023-07-08T07:33:11;101950.00;;;22.33;100.00
29549;BME280;16487;53.094;8.800;2023-07-08T07:35:42;101953.78;;;22.45;100.00
29549;BME280;16487;53.094;8.800;2023-07-08T07:38:09;101969.13;;;22.53;100.00
29549;BME280;16487;53.094;8.800;2023-07-08T07:40:36;101969.88;;;22.68;100.00
29549;BME280;16487;53.094;8.800;2023-07-08T07:43:06;101960.13;;;22.75;100.00
29549;BME280;16487;53.094;8.800;2023-07-08T07:45:33;101970.06;;;22.85;100.00
29549;BME280;16487;53.094;8.800;2023-07-08T07:48:01;101980.34;;;23.02;100.00
29549;BME280;16487;53.094;8.800;2023-07-08T07:50:30;101986.84;;;23.03;100.00
29549;BME280;16487;53.094;8.800;2023-07-08T07:52:57;101992.53;;;23.03;100.00
29549;BME280;16487;53.094;8.800;2023-07-08T07:55:24;102001.09;;;23.08;100.00
29549;BME280;16487;53.094;8.800;2023-07-08T07:57:52;102005.69;;;23.26;100.00
29549;BME280;16487;53.094;8.800;2023-07-08T08:00:19;102014.09;;;23.35;100.00
29549;BME280;16487;53.094;8.800;2023-07-08T08:02:46;102010.94;;;23.53;100.00
29549;BME280;16487;53.094;8.800;2023-07-08T08:05:14;102022.59;;;23.55;100.00
29549;BME280;16487;53.094;8.800;2023-07-08T08:07:43;102019.84;;;23.66;100.00
29549;BME280;16487;53.094;8.800;2023-07-08T08:10:10;102026.00;;;23.90;100.00
29549;BME280;16487;53.094;8.800;2023-07-08T08:12:37;102028.03;;;23.84;100.00
29549;BME280;16487;53.094;8.800;2023-07-08T08:15:20;102032.44;;;23.85;100.00
29549;BME280;16487;53.094;8.800;2023-07-08T08:17:47;102043.38;;;23.92;100.00
29549;BME280;16487;53.094;8.800;2023-07-08T08:20:15;102039.34;;;24.04;100.00
29549;BME280;16487;53.094;8.800;2023-07-08T08:22:44;102046.41;;;24.14;100.00
29549;BME280;16487;53.094;8.800;2023-07-08T08:25:11;102049.91;;;24.29;100.00
29549;BME280;16487;53.094;8.800;2023-07-08T08:27:38;102045.53;;;24.34;100.00
29549;BME280;16487;53.094;8.800;2023-07-08T08:30:06;102047.31;;;24.31;100.00
29549;BME280;16487;53.094;8.800;2023-07-08T08:32:34;102046.81;;;24.69;100.00
29549;BME280;16487;53.094;8.800;2023-07-08T08:35:01;102047.44;;;24.96;100.00
29549;BME280;16487;53.094;8.800;2023-07-08T08:37:29;102045.91;;;24.95;100.00
29549;BME280;16487;53.094;8.800;2023-07-08T08:39:57;102059.59;;;24.85;100.00
29549;BME280;16487;53.094;8.800;2023-07-08T08:42:27;102057.63;;;25.08;100.00
29549;BME280;16487;53.094;8.800;2023-07-08T08:44:56;102054.28;;;25.15;100.00
29549;BME280;16487;53.094;8.800;2023-07-08T08:47:33;102049.91;;;25.19;100.00
29549;BME280;16487;53.094;8.800;2023-07-08T08:50:05;102045.06;;;25.42;100.00
29549;BME280;16487;53.094;8.800;2023-07-08T08:52:41;102052.84;;;25.47;100.00
29549;BME280;16487;53.094;8.800;2023-07-08T08:55:13;102057.81;;;25.57;100.00
29549;BME280;16487;53.094;8.800;2023-07-08T08:57:45;102061.19;;;25.67;100.00
29549;BME280;16487;53.094;8.800;2023-07-08T09:00:20;102052.88;;;25.91;100.00
29549;BME280;16487;53.094;8.800;2023-07-08T09:02:53;102050.09;;;26.08;100.00
29549;BME280;16487;53.094;8.800;2023-07-08T09:05:25;102047.47;;;26.21;100.00
29549;BME280;16487;53.094;8.800;2023-07-08T09:08:00;102043.81;;;26.20;100.00
29549;BME280;16487;53.094;8.800;2023-07-08T09:10:42;102049.25;;;26.40;100.00
29549;BME280;16487;53.094;8.800;2023-07-08T09:13:16;102041.47;;;26.35;100.00
29549;BME280;16487;53.094;8.800;2023-07-08T09:15:44;102049.47;;;26.53;100.00
29549;BME280;16487;53.094;8.800;2023-07-08T09:18:18;102048.66;;;26.64;100.00
29549;BME280;16487;53.094;8.800;2023-07-08T09:20:47;102047.88;;;26.80;100.00
29549;BME280;16487;53.094;8.800;2023-07-08T09:23:19;102062.06;;;27.07;100.00
29549;BME280;16487;53.094;8.800;2023-07-08T09:25:54;102052.84;;;27.37;100.00
29549;BME280;16487;53.094;8.800;2023-07-08T09:28:36;102051.66;;;27.97;100.00
29549;BME280;16487;53.094;8.800;2023-07-08T09:31:08;102032.00;;;30.22;100.00
29549;BME280;16487;53.094;8.800;2023-07-08T09:33:38;102013.75;;;31.58;100.00
29549;BME280;16487;53.094;8.800;2023-07-08T09:36:17;102010.50;;;31.27;100.00
29549;BME280;16487;53.094;8.800;2023-07-08T09:38:47;101999.00;;;31.82;100.00
29549;BME280;16487;53.094;8.800;2023-07-08T09:41:29;102016.28;;;31.95;100.00
29549;BME280;16487;53.094;8.800;2023-07-08T09:44:04;101998.69;;;32.62;100.00
29549;BME280;16487;53.094;8.800;2023-07-08T09:46:38;102000.06;;;33.63;100.00
29549;BME280;16487;53.094;8.800;2023-07-08T09:49:23;101999.47;;;33.56;100.00
29549;BME280;16487;53.094;8.800;2023-07-08T09:51:51;101999.22;;;33.39;100.00
29549;BME280;16487;53.094;8.800;2023-07-08T09:54:22;101996.31;;;33.39;100.00
29549;BME280;16487;53.094;8.800;2023-07-08T09:56:57;101986.00;;;34.27;100.00
29549;BME280;16487;53.094;8.800;2023-07-08T09:59:29;101988.88;;;34.42;100.00
29549;BME280;16487;53.094;8.800;2023-07-08T10:01:59;101992.97;;;33.94;100.00
29549;BME280;16487;53.094;8.800;2023-07-08T10:04:27;101994.06;;;33.45;100.00
29549;BME280;16487;53.094;8.800;2023-07-08T10:06:55;101973.31;;;34.92;100.00
29549;BME280;16487;53.094;8.800;2023-07-08T10:09:24;101970.09;;;35.45;100.00
29549;BME280;16487;53.094;8.800;2023-07-08T10:11:57;101999.06;;;33.52;100.00
29549;BME280;16487;53.094;8.800;2023-07-08T10:14:29;101995.09;;;33.20;100.00
29549;BME280;16487;53.094;8.800;2023-07-08T10:16:58;101981.56;;;34.26;100.00
29549;BME280;16487;53.094;8.800;2023-07-08T10:19:25;101968.47;;;34.87;100.00
29549;BME280;16487;53.094;8.800;2023-07-08T10:22:02;101993.78;;;33.28;100.00
29549;BME280;16487;53.094;8.800;2023-07-08T10:24:43;101998.91;;;32.72;100.00
29549;BME280;16487;53.094;8.800;2023-07-08T10:27:22;102008.50;;;31.90;100.00
29549;BME280;16487;53.094;8.800;2023-07-08T10:29:54;102003.16;;;31.94;100.00
29549;BME280;16487;53.094;8.800;2023-07-08T10:32:36;102000.75;;;32.05;100.00
29549;BME280;16487;53.094;8.800;2023-07-08T10:35:12;101997.13;;;32.05;100.00
29549;BME280;16487;53.094;8.800;2023-07-08T10:37:50;101990.97;;;32.08;100.00
29549;BME280;16487;53.094;8.800;2023-07-08T10:40:30;101987.72;;;32.68;100.00
29549;BME280;16487;53.094;8.800;2023-07-08T10:43:18;101991.44;;;32.76;100.00
29549;BME280;16487;53.094;8.800;2023-07-08T10:45:54;101981.22;;;33.18;100.00
29549;BME280;16487;53.094;8.800;2023-07-08T10:48:38;101960.94;;;33.77;100.00
29549;BME280;16487;53.094;8.800;2023-07-08T10:51:16;101972.50;;;33.77;100.00
29549;BME280;16487;53.094;8.800;2023-07-08T10:53:58;101978.94;;;33.32;100.00
29549;BME280;16487;53.094;8.800;2023-07-08T10:56:36;101968.84;;;32.95;100.00
29549;BME280;16487;53.094;8.800;2023-07-08T10:59:20;101966.88;;;34.24;100.00
29549;BME280;16487;53.094;8.800;2023-07-08T11:02:02;101956.28;;;33.66;100.00
29549;BME280;16487;53.094;8.800;2023-07-08T11:04:49;101950.31;;;34.09;100.00
29549;BME280;16487;53.094;8.800;2023-07-08T11:07:29;101959.56;;;33.85;100.00
29549;BME280;16487;53.094;8.800;2023-07-08T11:10:00;101969.38;;;33.44;100.00
29549;BME280;16487;53.094;8.800;2023-07-08T11:12:32;101932.91;;;34.87;100.00
29549;BME280;16487;53.094;8.800;2023-07-08T11:15:07;101946.06;;;33.88;100.00
29549;BME280;16487;53.094;8.800;2023-07-08T11:17:43;101920.63;;;35.67;100.00
29549;BME280;16487;53.094;8.800;2023-07-08T11:20:16;101924.44;;;34.81;100.00
29549;BME280;16487;53.094;8.800;2023-07-08T11:22:49;101924.03;;;34.92;100.00
29549;BME280;16487;53.094;8.800;2023-07-08T11:25:19;101910.44;;;35.02;100.00
29549;BME280;16487;53.094;8.800;2023-07-08T11:27:49;101911.56;;;35.63;100.00
29549;BME280;16487;53.094;8.800;2023-07-08T11:30:22;101889.72;;;36.21;100.00
29549;BME280;16487;53.094;8.800;2023-07-08T11:33:00;101895.09;;;36.08;100.00
29549;BME280;16487;53.094;8.800;2023-07-08T11:35:36;101894.81;;;34.90;100.00
29549;BME280;16487;53.094;8.800;2023-07-08T11:38:05;101901.88;;;35.36;100.00
29549;BME280;16487;53.094;8.800;2023-07-08T11:40:49;101884.41;;;35.51;100.00
29549;BME280;16487;53.094;8.800;2023-07-08T11:43:17;101890.09;;;35.34;100.00
29549;BME280;16487;53.094;8.800;2023-07-08T11:45:48;101871.72;;;36.40;100.00
29549;BME280;16487;53.094;8.800;2023-07-08T11:48:18;101873.56;;;35.27;100.00
29549;BME280;16487;53.094;8.800;2023-07-08T11:50:49;101857.66;;;35.78;100.00
29549;BME280;16487;53.094;8.800;2023-07-08T11:53:34;101871.16;;;35.83;100.00
29549;BME280;16487;53.094;8.800;2023-07-08T11:56:03;101880.16;;;35.94;100.00
29549;BME280;16487;53.094;8.800;2023-07-08T12:01:23;101858.94;;;35.42;100.00
29549;BME280;16487;53.094;8.800;2023-07-08T12:03:54;101852.00;;;36.65;100.00
29549;BME280;16487;53.094;8.800;2023-07-08T12:06:41;101842.16;;;36.17;100.00
29549;BME280;16487;53.094;8.800;2023-07-08T12:09:22;101842.59;;;37.27;100.00
29549;BME280;16487;53.094;8.800;2023-07-08T12:11:55;101844.47;;;36.18;100.00
29549;BME280;16487;53.094;8.800;2023-07-08T12:14:23;101834.03;;;36.76;100.00
29549;BME280;16487;53.094;8.800;2023-07-08T12:16:52;101854.44;;;36.25;100.00
29549;BME280;16487;53.094;8.800;2023-07-08T12:19:21;101840.00;;;35.17;100.00
29549;BME280;16487;53.094;8.800;2023-07-08T12:21:49;101823.91;;;36.50;100.00
29549;BME280;16487;53.094;8.800;2023-07-08T12:24:18;101840.38;;;36.65;100.00
29549;BME280;16487;53.094;8.800;2023-07-08T12:26:45;101835.78;;;37.15;100.00
29549;BME280;16487;53.094;8.800;2023-07-08T12:29:12;101819.25;;;36.82;100.00
29549;BME280;16487;53.094;8.800;2023-07-08T12:31:41;101801.84;;;37.73;100.00
29549;BME280;16487;53.094;8.800;2023-07-08T12:34:13;101806.56;;;37.23;100.00
29549;BME280;16487;53.094;8.800;2023-07-08T12:36:41;101799.06;;;38.42;100.00
29549;BME280;16487;53.094;8.800;2023-07-08T12:39:11;101806.09;;;36.20;100.00
29549;BME280;16487;53.094;8.800;2023-07-08T12:41:41;101817.88;;;36.39;100.00
29549;BME280;16487;53.094;8.800;2023-07-08T12:44:15;101829.06;;;37.22;100.00
29549;BME280;16487;53.094;8.800;2023-07-08T12:46:43;101784.41;;;38.70;100.00
29549;BME280;16487;53.094;8.800;2023-07-08T12:49:11;101802.22;;;37.50;100.00
29549;BME280;16487;53.094;8.800;2023-07-08T12:51:41;101779.41;;;38.61;100.00
29549;BME280;16487;53.094;8.800;2023-07-08T12:54:09;101779.25;;;38.50;100.00
29549;BME280;16487;53.094;8.800;2023-07-08T12:56:37;101785.75;;;37.81;100.00
29549;BME280;16487;53.094;8.800;2023-07-08T12:59:06;101793.47;;;37.41;100.00